Burns Flat, Oklahoma
Current Conditions -  °F | °C
As of 11:53 PM on Sunday 23 Nov 2014 (Local Time) from KCSM Reporting Station
Clear Clear  
Wind Chill: 35°   Ceiling: Unl
Heat Index: 43°   Visibility: 10mi
Dew Point: 22°   Wind: 17mph
Humidity: 43%   Direction: 320°NW
Pressure: 29.86"   Gusts: NA
Location:  35.35°N, 99.17°W
Report Text: KCSM 240553Z AUTO 32015KT 10SM CLR 06/M06 A2986 RMK AO2 SLP105 T00611056 10089 20056 401500056 53024 $
Loading
Personal Weather Stations






























Interactive Weather Map New forecast layout! Learn more

10-Day Weather Forecast

Advertisements
Track Severe Weather on mobile